x

Cape San Martin - 55nm West Nw Of Morro Bay, Ca (46028) Weather Station

7:50am - Mon 22nd Dec 2014 All times are PST. -8 hours from GMT.

  • Wind
    29mph, 34mph gusts
  • Sea Temp 61°f
  • Air Temp 59°f
  • Sea Pressure 1021.2mb
  • Cape San Martin - 55nm West Nw Of Morro Bay, Ca
  • Cape San Martin - 55nm West Nw Of Morro Bay, Ca

More Historic Weather Station data

Upgrade to MSW Pro to gain access to the past 30 days of data for over 8000 Wavebouys and Weather Stations around the globe.

Join Pro

Comparision Forecast

View Surf forecast
   
Mon 12/22 7:50am  -   -   -  29 34 mph 1021.2mb 61f 59f
6:50am 13ft 14s 8s 29 34 mph 1021mb 61f 59f
5:50am  -   -   -  25 31 mph 1021.5mb 61f 59f
4:50am  -   -   -  27 31 mph 1021.7mb 61f 59f
3:50am  -   -   -  25 31 mph 1021.8mb 61f 60f
2:50am  -   -   -  25 31 mph 1021.8mb 61f 61f
1:50am  -   -   -  27 34 mph 1021.9mb 61f 60f
12:50am  -   -   -  27 34 mph 1021.8mb 61f 60f
Sun 12/21 11:50pm 13ft 14s 8s 29 36 mph 1022.4mb 61f 60f
10:50pm 11ft 12s 7s 31 38 mph 1022.5mb 61f 60f
9:50pm 13ft 13s 8s 31 38 mph 1022.4mb 62f 61f
8:50pm  -   -   -  31
mph
- - 61f
7:50pm  -   -   -  31 40 mph 1022.4mb 62f 60f
6:50pm  -   -   -  29 36 mph 1022.9mb 62f 60f
5:50pm 11ft 14s 8s 27 34 mph 1022.7mb 62f 61f
4:50pm 11ft 14s 8s 27 31 mph 1022.9mb 62f 61f
3:50pm 11ft 13s 8s 27 34 mph 1023mb 62f 61f
2:50pm  -   -   -  27 31 mph 1022.7mb 62f 60f
1:50pm 12ft 15s 8s 27 34 mph 1022.5mb 62f 60f
12:50pm  -   -   -  25 29 mph 1022.7mb 62f 60f
11:50am 11.5ft 15s 9s 25 29 mph 1023.6mb 62f 60f
10:50am 10ft 14s 8s 25 29 mph 1024.5mb 62f 60f
9:50am 11.5ft 15s 9s 22 27 mph 1024.5mb 62f 60f
8:50am  -   -   -  22 27 mph 1024.1mb 62f 60f
7:50am  -   -   -  18 22 mph 1024.1mb 62f 60f
6:50am  -   -   -  18 22 mph 1024mb 62f 61f
5:50am 11ft 13s 10s 16 20 mph 1023.6mb 62f 61f
4:50am  -   -   -  13 16 mph 1023.7mb 62f 61f
3:50am  -   -   -  13 18 mph 1024.1mb 62f 61f
2:50am 11ft 15s 11s 13 18 mph 1024.1mb 61f 60f
1:50am  -   -   -  13 16 mph 1024mb 61f 60f
12:50am 11.5ft 16s 11s 16 20 mph 1024.3mb 62f 60f
Sat 12/20 11:50pm  -   -   -  13 16 mph 1024.6mb 61f 61f
10:50pm  -   -   -  13 16 mph 1024.7mb 62f 61f
9:50pm  -   -   -  13 16 mph 1024.5mb 62f 61f
8:50pm  -   -   -  13 16 mph 1024.2mb 62f 61f
7:50pm  -   -   -  16 20 mph 1024mb 62f 61f
6:50pm  -   -   -  16 20 mph 1023.5mb 62f 61f
5:50pm  -   -   -  16 18 mph 1023mb 62f 61f
4:50pm  -   -   -  16 20 mph 1022.6mb 62f 61f
3:50pm  -   -   -  16 20 mph 1022.3mb 62f 61f
2:50pm  -   -   -  13 18 mph 1021.9mb 62f 60f
1:50pm  -   -   -  13 18 mph 1022mb 62f 61f
12:50pm  -   -   -  11 13 mph 1022mb 62f 61f
11:50am  -   -   -  11 13 mph 1022.4mb 62f 60f
10:50am  -   -   -  13 18 mph 1022.8mb 62f 60f
9:50am  -   -   -  11 16 mph 1022.7mb 62f 60f
8:50am  -   -   -  9 13 mph 1021.5mb 62f 60f
7:50am  -   -   -  2 4 mph 1021mb 62f 59f
6:50am  -   -   -  4 9 mph 1020.7mb 62f 59f
5:50am  -   -   -  7 9 mph 1020.3mb 62f 60f
4:50am  -   -   -  9 11 mph 1019.8mb 62f 61f
3:50am  -   -   -  4 7 mph 1020.4mb 62f 61f
2:50am  -   -   -  9 13 mph 1020.3mb 62f 60f
1:50am  -   -   -  9 13 mph 1020.8mb 62f 60f
12:50am  -   -   -  11 16 mph 1020.4mb 62f 60f
Fri 12/19 10:50pm  -   -   -  7 9 mph 1021.3mb 62f 61f
9:50pm  -   -   -  7 11 mph 1020.8mb 62f 61f
8:50pm  -   -   -  11 13 mph 1020.2mb 62f 61f
7:50pm  -   -   -  9 11 mph 1020.9mb 62f 61f
6:50pm  -   -   -  7 9 mph 1020.8mb 62f 61f
5:50pm  -   -   -  11 13 mph 1020.3mb 62f 60f
4:50pm  -   -   -  11 13 mph 1020.5mb 62f 60f
3:50pm  -   -   -  11 13 mph 1020.8mb 62f 61f
2:50pm  -   -   -  9 11 mph 1020.9mb 62f 61f
1:50pm  -   -   -  11 13 mph 1020.7mb 62f 60f
12:50pm  -   -   -  11 16 mph 1021mb 62f 59f
11:50am  -   -   -  11 18 mph 1021.2mb 62f 59f
10:50am  -   -   -  9 11 mph 1022.8mb 62f 59f
9:50am  -   -   -  13 18 mph 1023.4mb 62f 59f
8:50am  -   -   -  16 18 mph 1022mb 62f 60f
7:50am  -   -   -  16 20 mph 1021.4mb 62f 60f
6:50am  -   -   -  16 18 mph 1021.3mb 62f 60f
5:50am  -   -   -  13 18 mph 1021mb 62f 59f
4:50am  -   -   -  13 18 mph 1021.1mb 62f 60f
3:50am  -   -   -  13 18 mph 1021.4mb 62f 59f
2:50am  -   -   -  9 13 mph 1022.1mb 62f 60f
1:50am  -   -   -  4 7 mph 1022.2mb 62f 60f
12:50am  -   -   -  7 9 mph 1022.1mb 62f 60f
Thu 12/18 11:50pm  -   -   -  7 11 mph 1022.2mb 62f 60f
10:50pm  -   -   -  9 13 mph 1022mb 62f 60f
9:50pm  -   -   -  7 9 mph 1022.5mb 62f 60f
8:50pm  -   -   -  7 9 mph 1022mb 62f 60f
7:50pm  -   -   -  7 9 mph 1021.5mb 62f 59f
6:50pm  -   -   -  7 9 mph 1021.5mb 62f 59f
5:50pm  -   -   -  7 9 mph 1020.9mb 62f 59f
4:50pm  -   -   -  4 9 mph 1020.6mb 62f 58f